Time;durP1;ratioP1;P1;durP2;ratioP2;P2;SDS_P1;SDS_P2;PMS_P1;PMS_P2;Temp;Humidity;BMP_temperature;BMP_pressure;BME280_temperature;BME280_humidity;BME280_pressure;Samples;Min_cycle;Max_cycle;Signal;HPM_P1;HPM_P2
2024/02/22 00:00:23;;;;;;;16.70;10.60;;;;;;;0.91;100.00;101535.83;105975;1252;72845;-75
2024/02/22 00:02:51;;;;;;;17.60;11.10;;;;;;;0.85;100.00;101526.56;106084;1251;62550;-77
2024/02/22 00:05:19;;;;;;;18.60;11.60;;;;;;;0.79;100.00;101526.08;105847;1254;72350;-78
2024/02/22 00:07:47;;;;;;;17.30;10.80;;;;;;;0.74;100.00;101521.97;105850;1256;60555;-75
2024/02/22 00:10:15;;;;;;;15.40;10.40;;;;;;;0.69;100.00;101517.69;105993;1256;60352;-75
2024/02/22 00:12:42;;;;;;;16.30;11.40;;;;;;;0.65;100.00;101521.85;105778;1251;72540;-76
2024/02/22 00:15:10;;;;;;;13.90;11.10;;;;;;;0.61;100.00;101517.55;105783;1251;61557;-78
2024/02/22 00:17:39;;;;;;;19.00;11.30;;;;;;;0.59;100.00;101514.64;105738;1253;70641;-77
2024/02/22 00:20:07;;;;;;;19.70;11.20;;;;;;;0.58;100.00;101518.61;105965;1251;60901;-76
2024/02/22 00:22:34;;;;;;;19.90;11.80;;;;;;;0.57;100.00;101517.23;105906;1256;60552;-76
2024/02/22 00:25:03;;;;;;;14.00;10.60;;;;;;;0.57;100.00;101512.05;105856;1257;74308;-76
2024/02/22 00:27:31;;;;;;;16.60;11.10;;;;;;;0.57;100.00;101511.21;106004;1251;62919;-74
2024/02/22 00:29:58;;;;;;;15.00;11.00;;;;;;;0.56;100.00;101511.05;105899;1254;72786;-76
2024/02/22 00:32:26;;;;;;;16.60;11.10;;;;;;;0.56;100.00;101512.94;106385;1251;60924;-72
2024/02/22 00:34:55;;;;;;;18.10;10.70;;;;;;;0.57;100.00;101511.37;107097;1251;60546;-77
2024/02/22 00:37:22;;;;;;;15.10;9.80;;;;;;;0.56;100.00;101507.42;106593;1251;73873;-75
2024/02/22 00:39:51;;;;;;;17.30;10.90;;;;;;;0.58;100.00;101509.49;105918;1251;63997;-75
2024/02/22 00:42:20;;;;;;;15.10;10.80;;;;;;;0.60;100.00;101510.51;106072;1256;71442;-75
2024/02/22 00:44:47;;;;;;;13.00;10.10;;;;;;;0.62;100.00;101508.43;105778;1254;60552;-75
2024/02/22 00:47:15;;;;;;;12.40;10.70;;;;;;;0.64;100.00;101502.58;105855;1257;60443;-76
2024/02/22 00:49:43;;;;;;;13.80;10.00;;;;;;;0.66;100.00;101503.09;105871;1251;72613;-75
2024/02/22 00:52:12;;;;;;;15.30;10.60;;;;;;;0.68;100.00;101498.77;105792;1251;63683;-76
2024/02/22 00:54:43;;;;;;;22.60;12.70;;;;;;;0.68;100.00;101496.70;106020;1254;71543;-75
2024/02/22 00:57:11;;;;;;;13.70;10.10;;;;;;;0.67;100.00;101495.16;105556;1260;61996;-76
2024/02/22 00:59:38;;;;;;;14.00;10.30;;;;;;;0.66;100.00;101497.73;105854;1251;60542;-74
2024/02/22 01:02:07;;;;;;;18.00;10.30;;;;;;;0.65;100.00;101494.83;105913;1257;71491;-75
2024/02/22 01:06:10;;;;;;;15.50;11.20;;;;;;;0.64;100.00;101495.00;102468;1294;604040;-77
2024/02/22 01:08:38;;;;;;;18.80;11.10;;;;;;;0.62;100.00;101495.87;105585;1270;61214;-76
2024/02/22 01:11:05;;;;;;;16.40;9.80;;;;;;;0.63;100.00;101492.77;105503;1262;60297;-74
2024/02/22 01:13:33;;;;;;;19.30;11.60;;;;;;;0.62;100.00;101494.14;105419;1262;72327;-74
2024/02/22 01:16:01;;;;;;;17.70;10.40;;;;;;;0.62;100.00;101495.36;105434;1260;62443;-75
2024/02/22 01:18:28;;;;;;;17.50;11.40;;;;;;;0.62;100.00;101494.33;105605;1261;205418;-76
2024/02/22 01:20:56;;;;;;;15.10;10.60;;;;;;;0.62;100.00;101500.34;105785;1259;59730;-76
2024/02/22 01:23:23;;;;;;;16.20;11.30;;;;;;;0.65;100.00;101498.09;105641;1259;60261;-76
2024/02/22 01:25:51;;;;;;;13.60;9.70;;;;;;;0.68;100.00;101497.73;105678;1259;72176;-76
2024/02/22 01:28:18;;;;;;;15.40;10.00;;;;;;;0.71;100.00;101495.13;105572;1259;64002;-75
2024/02/22 01:30:46;;;;;;;13.30;10.60;;;;;;;0.74;100.00;101492.02;105673;1259;71223;-76
2024/02/22 01:33:13;;;;;;;14.10;9.60;;;;;;;0.78;100.00;101489.95;105674;1260;61220;-75
2024/02/22 01:35:40;;;;;;;14.90;10.10;;;;;;;0.79;100.00;101487.17;105579;1256;60478;-76
2024/02/22 01:38:08;;;;;;;17.10;11.10;;;;;;;0.82;100.00;101490.27;105674;1259;73477;-75
2024/02/22 01:40:35;;;;;;;14.20;10.60;;;;;;;0.84;100.00;101491.29;105583;1258;63796;-76
2024/02/22 01:43:02;;;;;;;19.00;11.20;;;;;;;0.86;100.00;101493.69;105597;1260;72545;-75
2024/02/22 01:45:30;;;;;;;15.70;10.90;;;;;;;0.87;100.00;101494.37;105706;1259;61132;-77
2024/02/22 01:47:57;;;;;;;16.40;9.70;;;;;;;0.89;100.00;101490.58;105768;1256;60396;-75
2024/02/22 01:50:25;;;;;;;14.60;10.20;;;;;;;0.92;100.00;101492.78;105883;1254;73056;-75
2024/02/22 01:52:52;;;;;;;14.00;10.20;;;;;;;0.93;100.00;101491.73;105840;1254;62274;-74
2024/02/22 01:55:20;;;;;;;13.80;10.30;;;;;;;0.94;100.00;101493.30;105785;1254;71144;-73
2024/02/22 01:57:49;;;;;;;14.10;9.40;;;;;;;0.94;100.00;101497.59;105683;1253;61173;-76
2024/02/22 02:00:17;;;;;;;16.60;10.50;;;;;;;0.96;100.00;101497.75;105905;1257;60315;-74
2024/02/22 02:02:44;;;;;;;18.00;11.90;;;;;;;0.96;100.00;101498.45;105821;1256;73246;-76
2024/02/22 02:05:12;;;;;;;23.10;10.10;;;;;;;0.96;100.00;101500.17;105925;1257;62450;-75
2024/02/22 02:07:39;;;;;;;16.30;10.80;;;;;;;0.95;100.00;101499.99;105771;1256;72443;-75
2024/02/22 02:10:08;;;;;;;14.10;10.70;;;;;;;0.96;100.00;101496.89;105708;1258;59767;-76
2024/02/22 02:12:37;;;;;;;11.70;9.30;;;;;;;0.99;100.00;101494.30;105939;1254;60306;-75
2024/02/22 02:15:05;;;;;;;16.40;10.70;;;;;;;1.00;100.00;101496.52;105784;1256;73200;-75
2024/02/22 02:17:34;;;;;;;16.80;9.80;;;;;;;1.01;100.00;101492.56;105752;1256;63930;-74
2024/02/22 02:20:10;;;;;;;13.30;10.10;;;;;;;1.00;100.00;101492.39;105835;1256;72663;-76
2024/02/22 02:22:52;;;;;;;15.70;10.70;;;;;;;0.99;100.00;101485.16;105954;1256;61302;-74
2024/02/22 02:25:19;;;;;;;13.40;10.90;;;;;;;0.97;100.00;101481.56;105756;1256;60385;-75
2024/02/22 02:27:46;;;;;;;16.40;10.60;;;;;;;0.95;100.00;101481.23;105823;1255;73023;-76
2024/02/22 02:30:13;;;;;;;18.20;10.00;;;;;;;0.92;100.00;101480.73;105881;1256;62979;-75
2024/02/22 02:32:41;;;;;;;18.40;10.40;;;;;;;0.90;100.00;101476.62;105735;1255;72611;-74
2024/02/22 02:35:08;;;;;;;13.60;10.00;;;;;;;0.87;100.00;101478.70;105776;1259;60952;-74
2024/02/22 02:37:35;;;;;;;16.70;12.10;;;;;;;0.85;100.00;101476.81;105717;1254;60030;-74
2024/02/22 02:40:04;;;;;;;16.60;10.10;;;;;;;0.83;100.00;101480.77;105812;1254;73015;-75
2024/02/22 02:42:31;;;;;;;18.00;11.00;;;;;;;0.82;100.00;101483.38;105830;1256;62515;-75
2024/02/22 02:44:59;;;;;;;16.30;11.30;;;;;;;0.80;100.00;101487.34;105847;1256;72671;-74
2024/02/22 02:47:26;;;;;;;16.90;10.70;;;;;;;0.78;100.00;101487.53;105711;1257;60929;-75
2024/02/22 02:49:53;;;;;;;15.70;11.20;;;;;;;0.78;100.00;101483.92;105709;1258;59550;-75
2024/02/22 02:52:20;;;;;;;19.60;11.40;;;;;;;0.79;100.00;101481.67;105848;1259;73046;-75
2024/02/22 02:54:47;;;;;;;14.60;10.50;;;;;;;0.78;100.00;101479.09;105767;1257;63944;-75
2024/02/22 02:57:14;;;;;;;17.40;10.10;;;;;;;0.78;100.00;101476.86;109627;1252;72661;-74
2024/02/22 02:59:42;;;;;;;17.10;10.40;;;;;;;0.79;100.00;101476.33;109570;1252;60956;-73
2024/02/22 03:02:09;;;;;;;18.10;10.90;;;;;;;0.80;100.00;101471.33;109654;1254;59343;-73
2024/02/22 03:04:36;;;;;;;16.50;11.50;;;;;;;0.81;100.00;101471.85;109641;1252;71945;-74
2024/02/22 03:07:03;;;;;;;14.80;10.20;;;;;;;0.82;100.00;101471.67;109620;1253;63954;-74
2024/02/22 03:09:30;;;;;;;17.30;11.40;;;;;;;0.85;100.00;101466.84;109585;1253;72397;-74
2024/02/22 03:11:57;;;;;;;15.70;10.40;;;;;;;0.86;100.00;101470.77;109621;1252;60156;-74
2024/02/22 03:14:24;;;;;;;18.20;11.20;;;;;;;0.89;100.00;101470.25;109652;1254;60119;-74
2024/02/22 03:16:51;;;;;;;17.80;10.50;;;;;;;0.93;100.00;101469.72;109623;1252;71966;-73
2024/02/22 03:19:18;;;;;;;18.00;12.60;;;;;;;0.95;100.00;101466.08;109658;1252;63759;-75
2024/02/22 03:21:44;;;;;;;16.50;11.10;;;;;;;0.94;100.00;101461.96;109591;1252;72507;-74
2024/02/22 03:24:11;;;;;;;17.30;10.80;;;;;;;0.92;100.00;101462.83;109587;1253;59940;-73
2024/02/22 03:26:38;;;;;;;16.90;11.70;;;;;;;0.90;100.00;101464.91;109631;1252;58898;-75
2024/02/22 03:29:05;;;;;;;21.30;11.80;;;;;;;0.88;100.00;101463.38;109616;1252;72925;-74
2024/02/22 03:31:32;;;;;;;17.10;10.80;;;;;;;0.88;100.00;101461.30;109608;1256;64160;-74
2024/02/22 03:34:00;;;;;;;20.10;12.60;;;;;;;0.88;100.00;101458.39;109593;1253;70763;-74
2024/02/22 03:36:27;;;;;;;19.70;11.70;;;;;;;0.86;100.00;101452.54;109589;1254;61075;-73
2024/02/22 03:38:54;;;;;;;15.60;10.60;;;;;;;0.85;100.00;101456.51;109667;1253;60317;-74
2024/02/22 03:41:24;;;;;;;18.50;11.00;;;;;;;0.84;100.00;101460.99;109640;1253;72731;-74
2024/02/22 03:43:51;;;;;;;17.00;10.80;;;;;;;0.86;100.00;101458.91;109664;1253;62431;-73
2024/02/22 03:46:18;;;;;;;16.60;11.10;;;;;;;0.88;100.00;101462.34;109621;1253;71201;-73
2024/02/22 03:48:45;;;;;;;19.20;13.00;;;;;;;0.89;100.00;101463.88;109572;1252;59869;-74
2024/02/22 03:51:13;;;;;;;39.90;14.10;;;;;;;0.92;100.00;101464.89;109518;1252;59745;-74
2024/02/22 03:53:40;;;;;;;19.80;11.30;;;;;;;0.95;100.00;101472.45;109579;1254;71748;-73
2024/02/22 03:56:07;;;;;;;15.50;10.70;;;;;;;0.98;100.00;101480.01;109713;1254;63190;-74
2024/02/22 03:58:34;;;;;;;16.90;10.50;;;;;;;1.01;100.00;101484.98;109637;1252;71449;-74
2024/02/22 04:01:02;;;;;;;14.90;11.10;;;;;;;1.02;100.00;101480.49;109458;1253;58833;-76
2024/02/22 04:03:31;;;;;;;17.90;11.20;;;;;;;1.05;100.00;101486.16;109620;1253;60162;-74
2024/02/22 04:05:58;;;;;;;18.80;13.40;;;;;;;1.08;100.00;101491.30;109648;1252;71628;-74
2024/02/22 04:08:26;;;;;;;18.00;12.10;;;;;;;1.12;100.00;101492.31;109659;1254;63771;-74
2024/02/22 04:10:53;;;;;;;21.20;12.90;;;;;;;1.16;100.00;101486.77;109562;1252;72535;-75
2024/02/22 04:13:19;;;;;;;19.40;11.80;;;;;;;1.19;100.00;101480.73;109562;1254;59706;-74
2024/02/22 04:15:47;;;;;;;19.10;11.70;;;;;;;1.22;100.00;101485.53;109614;1253;57833;-74
2024/02/22 04:18:14;;;;;;;15.30;11.30;;;;;;;1.25;100.00;101486.88;109581;1254;72790;-75
2024/02/22 04:20:41;;;;;;;18.70;11.30;;;;;;;1.27;100.00;101494.77;109599;1253;63763;-76
2024/02/22 04:23:08;;;;;;;18.40;11.80;;;;;;;1.27;100.00;101501.33;109624;1252;72612;-75
2024/02/22 04:25:36;;;;;;;16.30;11.10;;;;;;;1.26;100.00;101509.95;109597;1253;61032;-76
2024/02/22 04:28:03;;;;;;;18.80;11.20;;;;;;;1.28;100.00;101514.41;109601;1254;60125;-75
2024/02/22 04:30:31;;;;;;;17.80;11.80;;;;;;;1.31;100.00;101514.92;109573;1253;71728;-76
2024/02/22 04:32:58;;;;;;;16.10;11.30;;;;;;;1.34;100.00;101525.23;109615;1253;63637;-75
2024/02/22 04:35:25;;;;;;;19.50;11.50;;;;;;;1.35;100.00;101518.84;109607;1253;72434;-75
2024/02/22 04:37:53;;;;;;;14.70;10.70;;;;;;;1.37;100.00;101512.80;109634;1252;59860;-74
2024/02/22 04:40:20;;;;;;;21.20;12.20;;;;;;;1.40;100.00;101514.15;109866;1253;58726;-74
2024/02/22 04:42:47;;;;;;;17.60;11.20;;;;;;;1.43;100.00;101515.16;109657;1253;72096;-76
2024/02/22 04:45:14;;;;;;;21.40;13.00;;;;;;;1.46;100.00;101511.00;109609;1254;63738;-76
2024/02/22 04:47:41;;;;;;;16.70;12.00;;;;;;;1.47;100.00;101513.92;109557;1253;72932;-73
2024/02/22 04:50:09;;;;;;;21.90;11.50;;;;;;;1.49;100.00;101513.92;109528;1253;60982;-74
2024/02/22 04:52:36;;;;;;;19.50;11.90;;;;;;;1.51;100.00;101511.48;109642;1253;60243;-76
2024/02/22 04:55:03;;;;;;;20.10;11.40;;;;;;;1.54;100.00;101509.05;109584;1253;72889;-75
2024/02/22 04:57:30;;;;;;;19.70;11.70;;;;;;;1.56;100.00;101510.58;109590;1252;63932;-74
2024/02/22 04:59:57;;;;;;;19.30;12.40;;;;;;;1.57;100.00;101512.30;109568;1252;72312;-75
2024/02/22 05:02:24;;;;;;;18.40;12.70;;;;;;;1.56;100.00;101507.66;109545;1253;59649;-76
2024/02/22 05:04:51;;;;;;;20.00;12.50;;;;;;;1.56;100.00;101505.23;109623;1252;59119;-75
2024/02/22 05:07:18;;;;;;;20.90;12.80;;;;;;;1.56;100.00;101502.65;109593;1253;73015;-76
2024/02/22 05:09:46;;;;;;;23.80;13.60;;;;;;;1.56;100.00;101501.80;109645;1252;62422;-75
2024/02/22 05:12:13;;;;;;;20.00;12.70;;;;;;;1.55;100.00;101501.63;109552;1252;71488;-75
2024/02/22 05:14:44;;;;;;;20.10;13.50;;;;;;;1.54;100.00;101503.70;109540;1253;58983;-75
2024/02/22 05:17:12;;;;;;;22.20;14.10;;;;;;;1.51;100.00;101497.70;109587;1252;60173;-75
2024/02/22 05:19:39;;;;;;;17.70;11.40;;;;;;;1.49;100.00;101495.48;109607;1252;73103;-75
2024/02/22 05:22:06;;;;;;;19.80;13.20;;;;;;;1.47;100.00;101492.23;109587;1252;63745;-76
2024/02/22 05:24:33;;;;;;;21.90;12.70;;;;;;;1.44;100.00;101493.79;109575;1252;72708;-77
2024/02/22 05:27:01;;;;;;;19.70;12.70;;;;;;;1.44;100.00;101493.44;109577;1252;59851;-75
2024/02/22 05:29:29;;;;;;;19.20;12.80;;;;;;;1.45;100.00;101498.61;109589;1252;60141;-75
2024/02/22 05:31:58;;;;;;;18.60;12.10;;;;;;;1.46;100.00;101497.73;109578;1252;74020;-76
2024/02/22 05:34:25;;;;;;;19.90;13.60;;;;;;;1.48;100.00;101499.80;109615;1252;63657;-76
2024/02/22 05:36:52;;;;;;;18.80;12.00;;;;;;;1.50;100.00;101505.13;109583;1252;72607;-77
2024/02/22 05:39:18;;;;;;;21.30;13.90;;;;;;;1.52;100.00;101509.23;109522;1252;59926;-76
2024/02/22 05:41:45;;;;;;;19.90;12.90;;;;;;;1.55;100.00;101518.52;109600;1253;60102;-75
2024/02/22 05:44:13;;;;;;;24.40;13.90;;;;;;;1.58;100.00;101516.41;109573;1252;73725;-77
2024/02/22 05:46:41;;;;;;;24.00;15.10;;;;;;;1.61;100.00;101513.65;109578;1252;63126;-76
2024/02/22 05:49:11;;;;;;;19.50;13.00;;;;;;;1.64;100.00;101512.58;109581;1252;73800;-77
2024/02/22 05:51:38;;;;;;;24.60;13.50;;;;;;;1.67;100.00;101518.23;109595;1252;60402;-76
2024/02/22 05:54:05;;;;;;;20.90;13.50;;;;;;;1.70;100.00;101517.52;109635;1252;60283;-77
2024/02/22 05:56:32;;;;;;;22.30;14.00;;;;;;;1.73;100.00;101514.39;109559;1252;73751;-77
2024/02/22 05:59:00;;;;;;;26.50;14.30;;;;;;;1.77;100.00;101512.46;109641;1251;63563;-75
2024/02/22 06:01:28;;;;;;;23.30;14.90;;;;;;;1.79;100.00;101517.98;109593;1252;72548;-77
2024/02/22 06:03:54;;;;;;;23.00;13.50;;;;;;;1.83;100.00;101519.48;109569;1252;60986;-75
2024/02/22 06:06:21;;;;;;;21.50;13.40;;;;;;;1.88;100.00;101520.98;109625;1252;59023;-75
2024/02/22 06:08:48;;;;;;;21.40;14.40;;;;;;;1.97;100.00;101522.11;109570;1252;73862;-76
2024/02/22 06:11:16;;;;;;;17.20;12.20;;;;;;;2.07;100.00;101520.28;109590;1252;62770;-76
2024/02/22 06:13:45;;;;;;;22.20;13.00;;;;;;;2.16;100.00;101518.64;109580;1252;72730;-76
2024/02/22 06:16:14;;;;;;;21.80;12.80;;;;;;;2.22;100.00;101514.26;109583;1252;59796;-74
2024/02/22 06:18:41;;;;;;;23.00;13.10;;;;;;;2.32;100.00;101517.95;109634;1252;60271;-75
2024/02/22 06:21:10;;;;;;;29.00;14.10;;;;;;;2.41;100.00;101516.45;109602;1252;73921;-75
2024/02/22 06:23:37;;;;;;;28.20;14.10;;;;;;;2.49;100.00;101517.91;109608;1252;62788;-75
2024/02/22 06:26:04;;;;;;;28.70;16.00;;;;;;;2.59;100.00;101515.03;109569;1253;71464;-76
2024/02/22 06:28:33;;;;;;;17.40;12.40;;;;;;;2.72;100.00;101516.75;109554;1252;61107;-75
2024/02/22 06:31:01;;;;;;;21.00;13.00;;;;;;;2.84;100.00;101516.26;109588;1252;60309;-78
2024/02/22 06:33:29;;;;;;;20.50;12.90;;;;;;;2.92;100.00;101520.98;109611;1252;74141;-77
2024/02/22 06:35:57;;;;;;;20.60;13.50;;;;;;;2.95;100.00;101519.56;109595;1252;63373;-75
2024/02/22 06:38:24;;;;;;;19.60;13.10;;;;;;;3.01;100.00;101522.76;109569;1253;70651;-75
2024/02/22 06:40:50;;;;;;;25.40;14.90;;;;;;;3.12;100.00;101522.27;109547;1252;60937;-77
2024/02/22 06:43:17;;;;;;;22.00;14.20;;;;;;;3.32;100.00;101525.07;109594;1252;60187;-76
2024/02/22 06:45:44;;;;;;;18.50;12.40;;;;;;;3.67;100.00;101526.07;109593;1252;72446;-75
2024/02/22 06:48:11;;;;;;;28.60;14.30;;;;;;;4.01;100.00;101522.54;109610;1252;63209;-76
2024/02/22 06:50:38;;;;;;;16.40;11.90;;;;;;;4.27;100.00;101522.57;109595;1252;72777;-76
2024/02/22 06:53:06;;;;;;;25.50;14.30;;;;;;;4.42;100.00;101522.29;109544;1252;61025;-75
2024/02/22 06:55:33;;;;;;;22.10;13.90;;;;;;;4.54;100.00;101524.47;109621;1252;60261;-76
2024/02/22 06:58:02;;;;;;;21.30;14.00;;;;;;;4.68;100.00;101524.00;109625;1252;73835;-76
2024/02/22 07:00:32;;;;;;;20.50;12.90;;;;;;;4.87;100.00;101521.69;109604;1252;62779;-76
2024/02/22 07:02:59;;;;;;;14.70;11.20;;;;;;;5.09;100.00;101526.92;109612;1253;72533;-76
2024/02/22 07:05:30;;;;;;;18.70;11.50;;;;;;;5.23;100.00;101527.63;109579;1252;59894;-76
2024/02/22 07:07:57;;;;;;;17.40;10.90;;;;;;;5.23;100.00;101527.13;109668;1252;58749;-76
2024/02/22 07:10:25;;;;;;;15.10;11.50;;;;;;;5.21;100.00;101526.82;109609;1252;72991;-77
2024/02/22 07:12:51;;;;;;;18.70;12.30;;;;;;;5.25;100.00;101528.28;109589;1253;64087;-75
2024/02/22 07:15:19;;;;;;;18.80;13.20;;;;;;;5.31;100.00;101532.14;109579;1252;73138;-77
2024/02/22 07:17:47;;;;;;;26.30;12.50;;;;;;;5.32;100.00;101532.29;109563;1252;60376;-76
2024/02/22 07:20:14;;;;;;;18.10;12.60;;;;;;;5.38;100.00;101529.88;109620;1252;58777;-76
2024/02/22 07:22:42;;;;;;;23.20;12.00;;;;;;;5.49;100.00;101526.50;109618;1252;73869;-76
2024/02/22 07:25:12;;;;;;;21.60;12.70;;;;;;;5.57;100.00;101526.31;109625;1252;63010;-76
2024/02/22 07:27:39;;;;;;;18.30;12.90;;;;;;;5.66;100.00;101524.36;109597;1252;72395;-76
2024/02/22 07:30:08;;;;;;;18.40;12.20;;;;;;;5.80;100.00;101523.30;109584;1252;60244;-75
2024/02/22 07:32:36;;;;;;;17.70;11.70;;;;;;;5.94;100.00;101520.20;109620;1252;59919;-77
2024/02/22 07:35:03;;;;;;;18.70;12.50;;;;;;;5.95;100.00;101517.91;109666;1252;75342;-75
2024/02/22 07:37:30;;;;;;;18.40;12.30;;;;;;;5.90;100.00;101512.83;109919;1252;63908;-76
2024/02/22 07:41:43;;;;;;;17.40;13.50;;;;;;;5.86;100.00;101509.46;105771;1288;599601;-77
2024/02/22 07:44:11;;;;;;;16.00;11.90;;;;;;;5.84;100.00;101511.39;107447;1266;60069;-76
2024/02/22 07:46:46;;;;;;;20.80;13.20;;;;;;;5.76;100.00;101515.42;107766;1267;59248;-77
2024/02/22 07:49:14;;;;;;;15.00;12.20;;;;;;;5.72;100.00;101510.85;107856;1267;74008;-76
2024/02/22 07:51:48;;;;;;;;;;;;;;;5.71;100.00;101509.48;107481;1267;62296;-77
2024/02/22 07:54:25;;;;;;;19.40;13.40;;;;;;;5.71;100.00;101512.95;108093;1264;171179;-77
2024/02/22 07:56:54;;;;;;;20.60;13.00;;;;;;;5.81;100.00;101511.48;108587;1264;60634;-75
2024/02/22 07:59:24;;;;;;;20.60;13.60;;;;;;;5.93;100.00;101509.45;106333;1268;59332;-78
2024/02/22 08:01:52;;;;;;;22.40;13.00;;;;;;;6.02;100.00;101514.10;105589;1266;71904;-76
2024/02/22 08:04:26;;;;;;;17.00;11.90;;;;;;;6.14;100.00;101520.72;105889;1266;64089;-76
2024/02/22 08:06:54;;;;;;;24.20;13.50;;;;;;;6.26;100.00;101516.94;105662;1266;70550;-77
2024/02/22 08:09:22;;;;;;;20.30;13.70;;;;;;;6.36;100.00;101519.58;105494;1266;59862;-78
2024/02/22 08:11:49;;;;;;;18.50;12.70;;;;;;;6.55;100.00;101514.72;105921;1253;62098;-79
2024/02/22 08:14:17;;;;;;;17.80;11.60;;;;;;;6.70;100.00;101512.01;105880;1257;73443;-76
2024/02/22 08:16:46;;;;;;;20.50;13.40;;;;;;;6.76;100.00;101515.82;105881;1257;63922;-77
2024/02/22 08:19:14;;;;;;;22.00;12.40;;;;;;;6.69;100.00;101510.15;105880;1256;72896;-77
2024/02/22 08:21:42;;;;;;;19.10;10.80;;;;;;;6.78;100.00;101506.58;105768;1257;61673;-77
2024/02/22 08:24:10;;;;;;;16.00;11.70;;;;;;;6.97;100.00;101501.82;105639;1254;59655;-77
2024/02/22 08:26:38;;;;;;;17.20;11.60;;;;;;;7.19;100.00;101501.31;105767;1253;72869;-77
2024/02/22 08:29:07;;;;;;;20.20;12.30;;;;;;;7.32;100.00;101499.15;105929;1253;63250;-75
2024/02/22 08:31:38;;;;;;;15.90;11.30;;;;;;;7.33;100.00;101499.48;106470;1257;73114;-77
2024/02/22 08:34:06;;;;;;;17.80;12.40;;;;;;;7.35;100.00;101499.56;105738;1259;60576;-78
2024/02/22 08:36:34;;;;;;;20.30;13.30;;;;;;;7.33;100.00;101501.57;105768;1253;60233;-78
2024/02/22 08:39:02;;;;;;;17.90;12.40;;;;;;;7.29;100.00;101507.25;105881;1253;72991;-78
2024/02/22 08:41:29;;;;;;;14.50;10.90;;;;;;;7.34;100.00;101518.24;105831;1253;63489;-75
2024/02/22 08:43:58;;;;;;;20.00;12.80;;;;;;;7.34;100.00;101522.92;105999;1256;72579;-79
2024/02/22 08:46:30;;;;;;;16.80;11.90;;;;;;;7.36;100.00;101525.28;106526;1258;60833;-76
2024/02/22 08:49:00;;;;;;;;;;;;;;;7.38;100.00;101528.36;107358;1258;59988;-77
2024/02/22 08:51:29;;;;;;;19.50;13.20;;;;;;;7.35;100.00;101534.54;106615;1256;71455;-77
2024/02/22 08:53:57;;;;;;;18.20;13.30;;;;;;;7.27;100.00;101536.88;105947;1259;63906;-77
2024/02/22 08:56:24;;;;;;;21.70;14.70;;;;;;;7.23;100.00;101536.82;105659;1253;72761;-78
2024/02/22 08:58:53;;;;;;;23.70;13.10;;;;;;;7.25;100.00;101546.34;105790;1254;61703;-77
2024/02/22 09:01:21;;;;;;;22.30;13.80;;;;;;;7.25;100.00;101543.73;105730;1257;59701;-76
2024/02/22 09:03:48;;;;;;;22.20;14.60;;;;;;;7.20;100.00;101544.23;105770;1257;73935;-78
2024/02/22 09:06:16;;;;;;;22.70;14.20;;;;;;;7.12;100.00;101547.94;105818;1258;63094;-76
2024/02/22 09:08:45;;;;;;;22.70;14.10;;;;;;;6.98;100.00;101555.52;105720;1254;72260;-76
2024/02/22 09:11:13;;;;;;;20.20;15.10;;;;;;;6.82;100.00;101550.59;105851;1253;60386;-77
2024/02/22 09:13:40;;;;;;;22.90;15.00;;;;;;;6.72;100.00;101550.52;105723;1253;60636;-76
2024/02/22 09:16:08;;;;;;;22.30;14.70;;;;;;;6.69;100.00;101551.33;105728;1253;75631;-76
2024/02/22 09:18:37;;;;;;;20.20;14.90;;;;;;;6.62;100.00;101547.86;105945;1256;63476;-76
2024/02/22 09:21:05;;;;;;;26.70;16.00;;;;;;;6.57;100.00;101544.52;105842;1256;71173;-77
2024/02/22 09:23:32;;;;;;;24.00;16.60;;;;;;;6.59;100.00;101538.74;105815;1253;62733;-76
2024/02/22 09:26:00;;;;;;;23.30;15.40;;;;;;;6.59;100.00;101542.56;105821;1253;61185;-76
2024/02/22 09:28:28;;;;;;;25.30;17.80;;;;;;;6.57;100.00;101537.42;106009;1253;72739;-76
2024/02/22 09:30:57;;;;;;;31.10;20.00;;;;;;;6.54;100.00;101534.73;107598;1253;64869;-75
2024/02/22 09:33:25;;;;;;;25.10;17.30;;;;;;;6.54;100.00;101534.72;107041;1253;72980;-74
2024/02/22 09:35:53;;;;;;;29.50;17.00;;;;;;;6.56;100.00;101537.80;106969;1253;61648;-75
2024/02/22 09:38:20;;;;;;;26.80;17.30;;;;;;;6.56;100.00;101536.91;107312;1252;59299;-78
2024/02/22 09:40:48;;;;;;;26.30;17.80;;;;;;;6.55;100.00;101530.34;109105;1256;72777;-75
2024/02/22 09:43:17;;;;;;;30.50;18.70;;;;;;;6.58;100.00;101528.33;109404;1253;61902;-77
2024/02/22 09:45:45;;;;;;;28.60;18.90;;;;;;;6.64;100.00;101525.23;109168;1253;73928;-77
2024/02/22 09:48:13;;;;;;;29.70;18.60;;;;;;;6.77;100.00;101523.45;106539;1257;60574;-77
2024/02/22 09:50:41;;;;;;;35.50;19.50;;;;;;;6.94;100.00;101516.70;106336;1253;61612;-78
2024/02/22 09:53:08;;;;;;;27.00;19.70;;;;;;;7.18;100.00;101515.61;106204;1258;72945;-79
2024/02/22 09:55:37;;;;;;;35.70;20.50;;;;;;;7.40;100.00;101512.81;105696;1253;64798;-76
2024/02/22 09:58:04;;;;;;;26.40;18.10;;;;;;;7.57;100.00;101511.05;105651;1253;72856;-76
2024/02/22 10:00:33;;;;;;;37.60;21.20;;;;;;;7.68;100.00;101510.15;105866;1257;62891;-77
2024/02/22 10:03:01;;;;;;;30.70;20.60;;;;;;;7.73;100.00;101510.69;105924;1254;59853;-76
2024/02/22 10:05:39;;;;;;;31.50;18.50;;;;;;;7.81;100.00;101506.77;105700;1258;74071;-77
2024/02/22 10:08:11;;;;;;;33.00;19.10;;;;;;;7.97;100.00;101501.15;105837;1257;63031;-77
2024/02/22 10:10:40;;;;;;;31.10;19.10;;;;;;;8.15;100.00;101501.20;105801;1253;72432;-75
2024/02/22 10:13:19;;;;;;;28.10;17.50;;;;;;;8.29;100.00;101496.54;105797;1255;61762;-77
2024/02/22 10:15:50;;;;;;;35.80;22.00;;;;;;;8.41;100.00;101489.14;105831;1257;59639;-77
2024/02/22 10:18:25;;;;;;;44.70;26.40;;;;;;;8.49;100.00;101491.30;105701;1257;72600;-77
2024/02/22 10:20:53;;;;;;;27.70;18.50;;;;;;;8.52;100.00;101483.36;105733;1256;63532;-77
2024/02/22 10:23:21;;;;;;;28.00;17.10;;;;;;;8.58;100.00;101484.86;105491;1257;72527;-77
2024/02/22 10:25:49;;;;;;;26.30;17.70;;;;;;;8.70;100.00;101483.19;105738;1253;63576;-77
2024/02/22 10:28:16;;;;;;;28.80;18.50;;;;;;;8.87;100.00;101481.16;105875;1253;60665;-76
2024/02/22 10:30:44;;;;;;;25.90;18.70;;;;;;;9.02;100.00;101480.56;105807;1253;75920;-76
2024/02/22 10:33:12;;;;;;;27.70;17.80;;;;;;;9.08;100.00;101481.69;105659;1253;64717;-77
2024/02/22 10:35:40;;;;;;;30.90;18.90;;;;;;;9.11;100.00;101480.35;105614;1259;73104;-77
2024/02/22 10:38:11;;;;;;;27.10;18.80;;;;;;;9.13;100.00;101480.11;105607;1258;62706;-77
2024/02/22 10:40:40;;;;;;;28.10;19.00;;;;;;;9.19;100.00;101482.68;105545;1261;59706;-76
2024/02/22 10:43:08;;;;;;;24.20;17.30;;;;;;;9.23;100.00;101481.80;105763;1257;75002;-78
2024/02/22 10:45:37;;;;;;;37.10;19.00;;;;;;;9.23;100.00;101479.03;105605;1258;62424;-76
2024/02/22 10:48:08;;;;;;;26.20;17.10;;;;;;;9.20;100.00;101476.33;105878;1253;74457;-76
2024/02/22 10:50:36;;;;;;;25.60;18.30;;;;;;;9.15;100.00;101476.38;105686;1259;60413;-75
2024/02/22 10:53:05;;;;;;;30.40;19.30;;;;;;;9.09;100.00;101470.66;105500;1260;60246;-77
2024/02/22 10:55:34;;;;;;;27.30;20.40;;;;;;;9.07;100.00;101469.02;105720;1258;71695;-78
2024/02/22 10:58:02;;;;;;;29.80;19.60;;;;;;;9.06;100.00;101466.80;105776;1258;62984;-77
2024/02/22 11:00:32;;;;;;;28.60;18.70;;;;;;;9.06;100.00;101464.52;105643;1254;73938;-77
2024/02/22 11:02:59;;;;;;;29.30;18.30;;;;;;;9.08;100.00;101460.05;105662;1257;60207;-77
2024/02/22 11:05:35;;;;;;;31.10;19.10;;;;;;;9.05;100.00;101461.58;105499;1255;60546;-77
2024/02/22 11:08:03;;;;;;;24.70;17.10;;;;;;;9.06;100.00;101458.43;105812;1253;71868;-77